Date,TemperatureHighF,TemperatureAvgF,TemperatureLowF,DewpointHighF,DewpointAvgF,DewpointLowF,HumidityHigh,HumidityAvg,HumidityLow,PressureMaxIn,PressureMinIn,WindSpeedMaxMPH,WindSpeedAvgMPH,GustSpeedMaxMPH,PrecipitationSumIn
2014-1-1,66.6,48.0,34.5,48.5,35.2,23.3,82,63,44,30.22,29.89,18,8,18,0.00
2014-1-2,46.6,32.4,23.5,23.2,16.4,12.8,64,52,35,30.45,30.16,13,5,13,0.00
2014-1-3,51.3,36.6,22.5,25.2,20.0,13.7,76,53,34,30.45,30.04,13,4,13,0.00
2014-1-4,68.7,51.7,37.0,52.4,40.6,21.3,90,68,46,30.04,29.77,20,9,20,0.00
2014-1-5,58.8,34.5,19.6,54.0,19.8,3.0,85,55,40,30.51,29.77,15,8,15,0.00
2014-1-6,35.6,22.1,11.5,8.4,1.9,-4.4,50,42,30,30.72,30.51,9,4,13,0.00
2014-1-7,47.5,31.7,17.4,15.8,9.7,2.5,60,41,27,30.57,30.28,15,6,15,0.00
2014-1-8,46.8,41.5,37.4,46.0,35.1,15.2,98,81,39,30.28,29.92,13,5,13,0.08
2014-1-9,45.5,41.5,37.2,45.0,41.0,36.7,98,98,97,30.22,30.01,7,4,7,0.11
2014-1-10,65.5,57.3,44.8,63.7,55.8,41.7,98,95,76,30.01,29.69,13,5,13,0.48
2014-1-11,69.8,51.4,40.6,43.6,34.1,26.6,97,57,24,30.10,29.83,8,2,8,0.01
2014-1-12,70.5,55.1,40.5,55.3,35.8,27.8,83,50,27,30.07,29.81,18,8,28,0.00
2014-1-13,67.0,55.7,37.2,58.9,35.3,20.7,94,50,24,30.07,29.81,13,3,18,0.00
2014-1-14,71.2,49.2,35.6,33.0,25.8,17.9,56,42,22,30.34,29.98,13,4,13,0.00
2014-1-15,61.3,44.0,32.7,25.6,20.9,17.0,54,41,25,30.37,30.07,9,2,9,0.00
2014-1-16,69.6,49.4,35.6,35.0,25.1,15.9,68,41,23,30.19,29.98,10,4,10,0.00
2014-1-17,60.3,46.6,36.5,21.3,15.3,10.9,40,29,17,30.37,30.16,14,4,14,0.00
2014-1-18,70.0,50.1,35.4,29.8,22.6,13.6,50,35,22,30.19,30.01,17,5,17,0.00
2014-1-19,68.2,49.5,32.9,29.7,24.7,19.8,69,40,22,30.31,30.04,8,3,8,0.00
2014-1-20,78.8,56.4,42.4,40.0,30.6,23.2,57,39,22,30.22,29.86,15,6,15,0.00
2014-1-21,56.1,43.0,32.0,23.3,15.0,8.6,41,33,20,30.42,30.16,14,5,14,0.00
2014-1-22,65.1,44.2,28.6,29.1,19.4,10.0,51,38,24,30.19,30.04,10,4,10,0.00
2014-1-23,42.8,33.1,23.0,19.2,8.8,-1.9,41,36,32,30.75,30.19,17,10,17,0.00
2014-1-24,45.3,29.4,15.1,10.5,3.2,-3.7,44,33,20,30.72,30.22,13,4,13,0.00
2014-1-25,73.2,46.9,25.9,32.1,22.4,10.4,64,41,22,30.22,29.98,8,4,8,0.00
2014-1-26,72.9,55.5,46.0,37.8,32.2,26.2,59,42,25,29.98,29.66,14,4,14,0.00
2014-1-27,47.3,36.3,24.8,34.1,9.8,-4.9,67,34,22,30.31,29.77,22,10,22,0.00
2014-1-28,38.7,27.4,20.3,13.3,3.5,-2.7,49,36,30,30.48,30.34,13,6,13,0.00
2014-1-29,49.3,30.4,13.8,14.9,7.8,2.1,62,41,19,30.45,30.19,12,3,12,0.00
2014-1-30,58.1,43.2,30.4,45.6,26.1,9.9,86,52,41,30.19,29.83,25,10,29,0.00
2014-1-31,75.2,62.5,50.2,58.1,51.8,46.0,92,71,41,29.89,29.77,18,9,18,0.00
2014-2-1,64.6,52.9,38.7,60.5,45.6,28.4,93,76,63,30.04,29.77,15,6,15,0.01
2014-2-2,38.5,32.8,29.3,33.7,30.2,26.4,98,90,67,30.25,30.01,15,8,15,0.18
2014-2-3,42.1,34.8,28.4,35.9,30.2,24.7,92,84,71,30.28,30.04,8,3,8,0.00
2014-2-4,45.3,39.9,36.7,43.6,38.3,32.6,98,94,82,30.10,29.86,8,3,8,0.37
2014-2-5,37.0,29.8,22.8,33.6,18.6,9.8,89,63,52,30.51,30.10,15,8,15,0.00
2014-2-6,26.4,21.4,16.7,17.8,11.8,4.6,77,66,57,30.57,30.40,13,6,13,0.00
2014-2-7,33.3,28.8,23.0,31.1,22.2,14.8,97,77,65,30.40,30.22,6,2,8,0.00
2014-2-8,48.9,37.9,31.3,40.3,35.6,30.8,98,92,69,30.25,30.01,13,3,13,0.09
2014-2-9,47.1,41.0,36.0,43.9,39.9,35.5,98,96,85,30.13,30.01,12,3,12,0.00
2014-2-10,37.8,33.6,30.6,37.2,33.1,29.6,98,98,96,30.28,30.13,13,7,13,0.05
2014-2-11,35.8,31.9,28.4,29.6,26.0,22.6,96,79,62,30.34,30.22,8,4,13,0.00
2014-2-12,56.1,40.8,30.0,29.9,26.1,23.4,79,58,36,30.22,30.04,9,2,9,0.00
2014-2-13,65.7,45.6,27.0,38.0,32.8,24.6,94,65,36,30.04,29.89,14,4,14,0.00
2014-2-14,73.9,54.8,43.2,42.7,34.2,21.9,88,51,19,30.10,29.75,15,6,15,0.00
2014-2-15,68.5,49.7,32.4,33.5,28.2,22.1,75,46,24,30.16,30.01,13,3,13,0.00
2014-2-16,74.7,60.5,43.9,58.1,48.4,29.1,91,65,47,30.07,29.89,15,5,15,0.00
2014-2-17,78.1,65.0,47.1,61.6,41.4,24.1,94,50,18,30.16,29.86,17,6,17,0.00
2014-2-18,79.2,61.3,42.3,60.1,43.5,26.5,87,54,34,30.13,29.86,17,5,17,0.00
2014-2-19,72.0,65.6,61.0,62.6,60.6,58.0,98,85,66,29.95,29.66,22,8,22,0.00
2014-2-20,73.8,62.8,39.4,62.1,45.2,27.1,83,57,25,30.10,29.66,20,8,20,0.00
2014-2-21,67.8,50.7,32.5,28.9,23.9,18.4,72,40,17,30.16,30.01,13,3,13,0.00
2014-2-22,72.1,56.5,45.9,49.5,36.1,26.1,73,47,35,30.04,29.86,15,6,15,0.00
2014-2-23,78.8,60.0,45.5,60.0,47.8,34.2,98,67,38,30.13,29.86,15,7,15,0.00
2014-2-24,58.5,50.0,41.7,42.1,38.9,36.1,85,67,52,30.16,30.04,8,4,9,0.00
2014-2-25,52.9,48.8,40.8,43.7,38.0,27.1,81,66,47,30.13,30.04,15,7,15,0.00
2014-2-26,47.8,37.3,27.7,32.7,18.1,12.5,72,46,32,30.31,30.13,17,7,17,0.00
2014-2-27,57.9,40.6,22.3,26.3,19.6,11.5,73,46,26,30.16,29.86,10,2,10,0.00
2014-2-28,76.1,56.2,40.5,53.8,41.0,26.8,95,60,34,29.86,29.72,22,7,22,0.00
2014-3-1,82.2,65.8,49.8,62.6,57.6,49.2,98,78,43,29.98,29.86,14,5,14,0.00
2014-3-2,69.6,32.5,19.6,63.7,28.4,12.6,98,85,57,30.31,29.95,13,7,13,0.05
2014-3-3,37.6,24.9,14.7,20.3,13.4,6.4,74,62,47,30.45,30.31,15,6,15,0.00
2014-3-4,48.2,34.8,23.7,29.6,24.0,16.3,87,66,44,30.34,30.04,7,3,7,0.08
2014-3-5,58.5,42.5,29.8,32.9,29.8,27.6,98,65,37,30.16,29.98,9,3,9,0.01
2014-3-6,60.3,45.0,36.7,39.6,35.4,28.1,90,71,44,30.25,30.04,10,2,10,0.01
2014-3-7,67.5,49.8,33.4,41.3,36.3,30.3,98,65,34,30.04,29.86,15,4,15,0.00
2014-3-8,55.9,48.5,37.9,53.1,43.1,34.0,95,82,65,30.31,29.89,12,5,12,0.00
2014-3-9,66.9,49.4,37.4,44.3,38.7,34.0,90,69,43,30.34,30.19,8,3,8,0.00
2014-3-10,78.1,58.8,40.5,52.8,43.7,39.5,98,65,27,30.19,29.89,13,4,13,0.00
2014-3-11,78.4,64.9,55.6,56.5,53.5,35.7,98,70,40,29.86,29.57,17,8,17,0.00
2014-3-12,65.8,53.7,41.7,35.3,27.0,17.5,54,37,21,30.28,29.81,18,8,20,0.00
2014-3-13,70.7,52.8,32.9,32.2,26.5,19.6,70,39,22,30.31,30.07,14,4,14,0.00
2014-3-14,71.8,58.1,45.9,51.6,43.7,28.4,80,60,44,30.07,29.98,15,7,15,0.00
2014-3-15,68.0,60.8,53.8,63.0,57.6,51.0,98,90,73,30.01,29.72,13,3,13,1.40
2014-3-16,54.5,47.2,40.6,53.8,41.6,31.4,98,81,68,30.04,29.75,17,7,17,0.01
2014-3-17,64.4,48.0,34.0,33.2,29.1,25.3,79,52,24,30.04,29.75,8,2,8,0.00
2014-3-18,78.6,62.2,47.1,47.7,40.3,28.7,65,46,28,29.86,29.63,22,10,22,0.00
2014-3-19,69.3,56.2,43.3,39.4,32.8,26.3,59,42,28,30.22,29.86,12,4,12,0.00
2014-3-20,74.5,55.9,36.5,35.3,31.5,27.4,77,44,22,30.22,30.01,9,2,9,0.00
2014-3-21,80.8,64.3,47.7,58.6,46.0,26.0,78,53,37,30.01,29.83,20,7,20,0.00
2014-3-22,66.4,60.3,52.7,58.6,51.0,42.9,91,73,49,30.10,29.92,12,4,12,0.00
2014-3-23,62.4,52.1,44.2,49.7,34.4,26.3,85,52,36,30.34,30.10,16,8,16,0.00
2014-3-24,70.0,52.6,37.6,38.1,31.3,24.7,81,47,27,30.25,30.04,8,2,8,0.00
2014-3-25,66.6,52.0,38.8,35.8,28.6,24.3,73,43,25,30.37,30.16,14,5,14,0.00
2014-3-26,59.7,51.9,41.4,47.8,35.2,26.5,70,53,43,30.25,29.95,15,5,15,0.01
2014-3-27,77.4,65.1,56.5,66.7,60.0,47.8,98,84,64,29.95,29.69,20,9,20,0.07
2014-3-28,81.9,66.7,51.1,67.0,60.9,43.1,98,83,50,30.04,29.75,12,5,12,0.26
2014-3-29,77.4,58.9,43.7,46.8,39.9,31.7,87,55,22,30.28,30.04,10,4,10,0.00
2014-3-30,78.0,61.2,42.4,44.0,39.5,34.9,79,48,27,30.22,29.98,15,4,15,0.00
2014-3-31,78.4,66.2,55.9,57.9,52.2,43.1,82,62,44,29.98,29.86,20,9,20,0.00
2014-4-1,82.0,71.1,62.6,64.6,61.3,57.4,93,73,45,30.01,29.86,15,6,15,0.00
2014-4-2,81.5,73.5,68.9,70.7,67.0,63.9,92,81,62,29.89,29.72,16,7,17,0.00
2014-4-3,81.9,74.1,63.3,69.5,66.7,55.3,90,78,59,29.81,29.63,22,10,22,0.13
2014-4-4,69.8,56.7,44.1,53.6,36.1,29.8,68,48,29,30.19,29.81,15,6,15,0.01
2014-4-5,57.0,51.1,46.8,47.1,37.5,31.7,83,61,47,30.16,29.98,9,4,9,0.08
2014-4-6,52.2,48.5,46.2,51.6,46.6,41.7,98,93,76,29.98,29.77,12,6,12,0.96
2014-4-7,68.2,54.7,47.1,53.4,48.8,45.3,98,82,49,29.98,29.81,9,3,9,0.01
2014-4-8,72.5,58.6,48.7,47.7,39.8,31.2,86,54,25,30.16,29.95,13,5,13,0.00
2014-4-9,78.1,61.3,41.5,45.6,41.2,34.6,84,51,30,30.25,30.04,15,5,15,0.00
2014-4-10,82.8,69.9,57.9,56.3,50.9,43.7,81,53,33,30.04,29.89,25,12,25,0.00
2014-4-11,81.5,70.5,62.1,61.4,57.4,47.3,87,65,45,30.04,29.92,15,9,15,0.00
2014-4-12,83.1,72.5,64.8,61.4,59.6,56.8,85,66,44,29.98,29.77,20,10,20,0.00
2014-4-13,74.8,69.3,65.3,70.4,65.1,58.2,98,87,68,29.83,29.63,18,10,18,0.39
2014-4-14,71.1,50.1,41.4,68.6,39.8,29.1,93,69,46,30.22,29.69,17,8,17,0.04
2014-4-15,67.5,50.3,32.7,33.4,28.1,23.2,85,47,23,30.31,30.13,8,2,8,0.00
2014-4-16,68.5,54.2,40.5,38.9,34.1,28.2,65,48,33,30.13,29.95,15,5,15,0.00
2014-4-17,70.3,58.1,47.1,52.3,46.4,37.3,90,66,50,30.22,30.04,8,2,8,0.00
2014-4-18,79.5,65.5,54.1,52.5,47.8,41.8,89,57,30,30.25,30.13,10,3,10,0.00
2014-4-19,81.7,66.6,51.1,57.0,51.6,46.2,94,62,34,30.22,30.10,10,2,10,0.00
2014-4-20,79.9,67.9,59.2,62.0,55.7,49.2,97,68,38,30.16,30.04,13,4,13,0.20
2014-4-21,80.6,68.8,61.5,68.1,63.6,59.8,98,85,60,30.13,29.92,14,5,14,0.10
2014-4-22,87.1,70.7,56.8,66.6,57.4,49.3,98,69,32,30.07,29.92,10,3,11,0.00
2014-4-23,86.7,71.8,56.1,63.5,58.2,53.0,93,66,39,29.95,29.75,13,4,13,0.00
2014-4-24,87.1,72.9,61.5,66.1,57.0,41.7,93,62,30,29.95,29.77,17,6,17,0.00
2014-4-25,83.5,68.4,53.4,44.2,39.1,34.3,56,37,20,30.07,29.89,10,3,10,0.00
2014-4-26,83.7,71.4,59.9,69.1,59.0,39.1,87,66,45,29.89,29.66,15,6,15,0.00
2014-4-27,87.1,76.2,70.7,73.5,68.4,54.7,95,78,53,29.66,29.42,17,8,17,0.12
2014-4-28,84.7,73.7,64.2,65.6,42.0,31.6,81,33,22,29.72,29.48,8,4,8,0.00
2014-4-29,79.3,65.7,52.5,44.1,38.2,33.3,58,38,21,29.95,29.66,15,5,15,0.00
2014-4-30,71.1,57.3,47.5,42.0,36.9,29.8,75,49,28,30.13,29.92,14,4,14,0.00
2014-5-1,77.2,60.2,40.6,44.4,34.7,29.4,86,44,21,30.13,30.01,10,2,10,0.00
2014-5-2,84.6,65.5,45.3,45.0,38.1,32.9,80,41,19,30.04,29.89,12,2,12,0.00
2014-5-3,90.3,69.1,46.2,48.6,41.9,38.1,80,43,18,30.04,29.92,9,2,9,0.00
2014-5-4,91.4,74.9,59.4,50.5,43.8,39.2,51,35,19,30.04,29.92,16,7,16,0.00
2014-5-5,87.6,73.8,59.5,58.4,50.9,35.8,75,46,35,29.92,29.77,17,9,17,0.00
2014-5-6,85.8,74.6,63.0,62.1,59.2,53.5,92,61,41,29.83,29.69,17,9,17,0.00
2014-5-7,81.5,74.4,68.4,66.6,63.4,60.2,84,69,52,29.86,29.75,17,9,17,0.00
2014-5-8,73.6,68.9,64.0,71.2,67.0,63.4,98,94,77,29.89,29.77,17,5,17,5.28
2014-5-9,86.5,75.0,63.5,73.9,67.7,59.4,98,81,46,29.89,29.77,13,6,13,0.00
2014-5-10,87.1,75.0,64.0,70.2,65.4,59.3,97,74,45,29.89,29.77,14,6,14,0.00
2014-5-11,87.6,78.1,70.5,71.1,69.2,65.9,96,76,51,29.83,29.69,17,8,17,0.00
2014-5-12,84.0,72.3,58.6,76.3,68.2,58.1,98,88,59,30.01,29.72,17,6,17,1.07
2014-5-13,69.3,59.9,54.5,58.1,51.9,48.1,98,76,51,30.22,30.01,14,6,14,0.00
2014-5-14,72.7,60.9,53.8,55.0,48.9,39.6,98,69,34,30.25,30.16,13,5,13,0.33
2014-5-15,84.2,65.5,49.5,49.2,45.2,37.4,92,54,21,30.22,30.04,13,4,13,0.00
2014-5-16,83.8,68.9,54.3,57.3,51.0,43.2,90,56,32,30.10,29.86,13,4,13,0.00
2014-5-17,81.9,70.7,56.8,61.3,53.6,44.4,77,56,41,30.01,29.86,13,6,13,0.00
2014-5-18,84.6,72.2,60.3,64.4,59.1,55.5,96,67,41,30.07,29.95,15,5,15,0.00
2014-5-19,84.4,74.2,64.4,64.1,60.8,57.5,94,66,42,30.04,29.89,17,8,17,0.00
2014-5-20,87.1,76.8,68.0,66.3,62.8,58.8,90,64,41,30.04,29.92,18,10,19,0.00
2014-5-21,87.4,76.4,67.5,67.0,63.1,57.9,95,66,41,30.07,29.92,15,6,15,0.00
2014-5-22,87.6,76.2,66.9,67.8,64.3,60.1,96,69,42,30.10,29.95,12,4,12,0.00
2014-5-23,82.8,75.0,69.4,68.2,66.6,61.1,91,76,50,30.07,29.95,13,4,13,0.00
2014-5-24,86.0,76.7,70.5,68.1,65.5,61.3,89,70,45,30.04,29.92,10,4,10,0.00
2014-5-25,87.1,77.6,70.3,69.7,66.2,60.2,93,70,43,30.01,29.89,17,5,17,0.00
2014-5-26,78.8,73.8,66.6,70.8,67.6,63.1,92,81,66,30.04,29.89,9,3,9,0.01
2014-5-27,82.8,71.4,66.0,68.2,64.9,58.3,98,82,48,29.95,29.83,10,4,10,0.19
2014-5-28,87.3,74.1,65.3,68.3,64.0,57.6,98,75,40,29.89,29.81,10,3,10,0.08
2014-5-29,91.6,77.1,64.2,68.1,64.8,60.5,98,69,38,29.86,29.77,8,3,8,0.00
2014-5-30,90.7,76.1,68.0,73.2,68.5,62.2,98,79,41,29.86,29.77,9,4,9,0.02
2014-5-31,88.9,76.2,69.3,73.7,70.1,64.0,97,83,45,29.92,29.83,9,3,9,0.03
2014-6-1,91.6,78.6,69.1,72.8,69.3,63.7,98,76,43,29.95,29.81,12,3,12,0.00
2014-6-2,91.8,81.0,73.6,73.7,69.2,62.3,93,71,39,29.98,29.81,15,5,15,0.00
2014-6-3,92.8,81.2,72.0,74.0,69.5,64.6,97,70,40,29.98,29.83,13,4,13,0.00
2014-6-4,91.2,81.7,73.8,72.8,69.7,64.8,95,70,44,29.86,29.75,17,8,17,0.00
2014-6-5,89.8,80.8,73.0,73.6,70.9,68.3,93,74,50,29.83,29.75,17,7,17,0.00
2014-6-6,91.9,81.4,72.7,73.3,69.8,64.1,95,71,42,29.95,29.77,12,5,14,0.00
2014-6-7,95.4,84.3,74.3,72.0,67.8,61.7,91,61,37,29.89,29.81,14,7,14,0.00
2014-6-8,90.0,81.0,74.7,74.9,70.0,65.4,94,71,46,29.92,29.75,13,6,13,0.28
2014-6-9,75.0,71.1,63.7,73.8,67.9,62.0,98,90,70,29.81,29.69,22,3,22,0.73
2014-6-10,87.6,74.5,63.3,65.2,59.8,56.9,92,63,39,29.81,29.69,6,2,12,0.00
2014-6-11,92.5,79.1,62.7,68.4,62.5,59.1,96,61,35,29.83,29.72,9,2,12,0.00
2014-6-12,86.4,76.5,70.7,72.5,69.9,66.8,95,81,54,29.95,29.69,8,2,13,0.07
2014-6-13,90.3,80.0,71.2,71.9,68.2,63.5,97,70,42,29.95,29.83,7,2,11,0.00
2014-6-14,91.0,81.5,72.5,74.9,70.4,66.1,91,71,45,29.86,29.75,12,4,17,0.00
2014-6-15,92.7,83.1,74.8,73.0,69.8,64.6,91,67,41,29.86,29.75,12,6,17,0.00
2014-6-16,94.3,83.7,75.0,74.6,70.6,65.3,95,68,40,29.95,29.86,12,5,16,0.00
2014-6-17,89.8,81.8,75.7,74.8,72.3,68.1,92,74,50,29.95,29.83,12,6,16,0.00
2014-6-18,93.7,81.6,74.8,74.6,71.2,62.0,91,73,42,29.92,29.83,12,6,20,0.00
2014-6-19,93.2,82.6,73.8,73.7,70.1,62.7,94,69,42,29.98,29.89,10,4,15,0.00
2014-6-20,95.2,83.0,72.7,73.1,67.5,59.8,94,63,36,30.01,29.89,8,2,12,0.00
2014-6-21,92.2,81.3,73.2,74.2,69.5,62.7,93,70,40,29.98,29.83,8,2,10,0.00
2014-6-22,78.4,75.3,71.8,73.3,71.6,69.6,96,88,78,29.89,29.75,7,2,12,0.16
2014-6-23,87.8,77.3,69.3,73.3,69.8,63.1,98,80,47,29.86,29.75,15,4,15,0.20
2014-6-24,98.1,79.3,70.2,74.1,69.3,64.4,97,75,37,29.95,29.83,10,2,10,0.12
2014-6-25,84.4,75.2,70.2,74.9,70.9,67.3,97,87,67,29.98,29.86,10,3,10,0.00
2014-6-26,90.7,78.7,70.3,73.0,70.6,65.3,98,79,45,29.92,29.77,15,6,15,0.00
2014-6-27,90.7,79.8,72.5,74.5,71.5,67.9,96,77,49,29.83,29.72,17,8,17,0.00
2014-6-28,91.4,82.4,76.5,77.2,73.0,67.0,90,75,47,29.83,29.75,20,8,20,0.00
2014-6-29,93.6,85.5,78.8,77.4,72.3,67.2,89,67,44,29.92,29.81,18,9,18,0.00
2014-6-30,95.4,85.0,76.5,75.0,69.5,61.6,90,63,34,29.89,29.75,20,10,20,0.00
2014-7-1,94.5,83.3,71.8,73.2,69.8,64.6,94,67,39,29.89,29.72,13,7,13,0.00
2014-7-2,95.9,83.8,75.9,74.5,69.0,60.4,91,64,34,29.98,29.83,12,4,12,0.00
2014-7-3,86.0,76.8,67.3,70.6,67.6,61.3,98,75,48,30.16,29.92,10,4,11,0.69
2014-7-4,93.3,80.8,70.7,73.0,69.3,64.8,93,70,42,30.25,30.16,8,2,8,0.00
2014-7-5,93.4,81.1,71.8,71.6,67.6,62.2,94,67,39,30.22,30.07,8,3,8,0.00
2014-7-6,95.2,82.5,71.1,73.3,68.4,61.8,97,67,36,30.10,29.95,10,4,10,0.00
2014-7-7,97.5,84.9,73.2,73.2,68.0,60.1,96,62,33,30.04,29.92,13,6,13,0.00
2014-7-8,98.4,85.7,75.0,72.3,68.2,59.4,89,60,32,30.04,29.92,9,6,12,0.00
2014-7-9,98.2,85.7,73.6,71.1,66.5,58.3,84,56,32,30.10,29.95,13,4,13,0.00
2014-7-10,97.5,85.4,74.5,71.1,65.0,56.5,84,54,30,30.10,29.95,16,5,16,0.00
2014-7-11,97.0,85.0,71.4,71.1,64.4,59.0,86,54,30,30.16,30.04,13,5,13,0.00
2014-7-12,99.3,86.7,73.6,71.0,64.4,57.7,89,52,27,30.19,30.04,13,4,13,0.00
2014-7-13,102.6,88.6,74.5,71.0,66.0,57.6,85,52,27,30.13,29.98,9,4,9,0.00
2014-7-14,103.1,84.3,75.6,73.9,69.1,60.6,86,64,27,30.04,29.92,13,5,13,0.09
2014-7-15,94.5,82.3,72.9,71.9,58.5,45.4,92,50,20,30.10,29.98,13,6,13,0.00
2014-7-16,91.6,78.9,65.1,64.6,59.1,49.1,78,52,35,30.07,29.89,10,4,10,0.00
2014-7-17,77.7,70.4,65.1,69.2,66.6,64.5,98,89,64,30.01,29.89,13,5,13,3.33
2014-7-18,73.9,67.4,63.0,66.9,64.8,62.4,98,92,74,30.04,29.95,10,5,11,0.00
2014-7-19,76.5,70.9,66.0,68.0,65.7,61.9,98,85,63,30.07,30.01,5,1,5,0.00
2014-7-20,91.4,77.4,64.6,73.2,68.2,64.0,98,76,46,30.07,29.95,8,2,8,0.00
2014-7-21,97.5,82.1,70.0,78.0,71.4,66.4,96,74,38,30.10,29.98,8,3,8,0.00
2014-7-22,96.4,84.3,73.8,75.4,71.5,63.4,95,69,38,30.10,30.04,8,2,8,0.00
2014-7-23,97.2,82.3,70.7,72.3,69.3,64.3,97,69,37,30.13,30.01,16,2,16,0.00
2014-7-24,95.2,81.5,69.4,72.7,68.5,62.7,98,69,37,30.10,29.95,8,2,8,0.00
2014-7-25,99.7,85.3,71.6,74.8,69.3,61.3,97,65,29,30.04,29.92,7,2,12,0.00
2014-7-26,100.2,87.7,74.7,74.0,69.0,60.6,92,59,28,30.04,29.92,8,4,12,0.00
2014-7-27,102.6,89.6,76.6,74.4,68.8,61.4,89,54,28,30.07,29.98,9,5,12,0.00
2014-7-28,96.6,85.8,75.9,77.8,68.1,55.4,88,58,35,30.16,30.04,13,4,13,0.00
2014-7-29,93.0,80.8,70.5,66.8,61.4,55.8,76,54,33,30.16,30.07,6,2,6,0.00
2014-7-30,87.6,78.3,72.1,75.0,69.3,65.9,93,75,51,30.13,29.95,13,3,13,0.11
2014-7-31,83.5,73.3,68.2,81.5,71.5,67.3,98,94,79,30.04,29.95,13,5,13,2.67
2014-8-1,78.6,71.7,68.0,70.5,68.1,66.6,98,89,71,30.10,30.01,8,5,8,0.00
2014-8-2,90.3,76.6,65.3,72.8,66.4,62.8,98,74,42,30.13,30.04,10,3,10,0.00
2014-8-3,93.9,80.8,68.5,73.3,67.5,62.3,96,68,38,30.13,30.01,12,3,12,0.00
2014-8-4,93.7,81.7,70.9,73.5,67.8,61.0,96,67,37,30.10,30.01,9,3,9,0.00
2014-8-5,96.8,83.6,72.0,75.4,70.1,64.5,94,68,37,30.13,30.01,8,2,8,0.00
2014-8-6,98.8,86.0,75.9,75.3,70.7,63.1,93,64,33,30.07,29.92,10,4,11,0.00
2014-8-7,99.7,86.8,76.1,77.0,72.1,65.4,89,65,35,29.98,29.81,13,6,13,0.00
2014-8-8,102.4,88.3,77.9,75.8,70.0,62.1,87,59,30,29.98,29.86,13,6,13,0.00
2014-8-9,101.8,88.0,77.4,74.4,70.0,60.0,89,60,28,30.04,29.92,12,5,12,0.00
2014-8-10,104.7,91.4,75.7,75.0,68.3,62.7,91,51,28,30.07,29.92,12,4,12,0.00
2014-8-11,99.0,86.3,75.7,73.3,68.0,60.9,86,58,30,30.10,29.98,10,1,11,0.00
2014-8-12,95.5,82.3,70.0,70.4,61.5,51.0,89,55,27,30.10,30.01,14,4,14,0.00
2014-8-13,95.5,79.6,64.0,62.8,58.5,52.5,87,53,28,30.13,30.01,10,2,10,0.00
2014-8-14,95.4,80.7,67.5,65.5,61.1,56.7,92,55,30,30.10,29.98,9,2,9,0.00
2014-8-15,98.1,83.7,70.2,71.5,65.6,60.3,80,58,32,30.04,29.89,12,4,12,0.00
2014-8-16,104.5,83.9,76.6,75.2,71.0,60.0,93,70,26,29.98,29.89,16,5,16,0.10
2014-8-17,79.3,76.4,73.4,75.5,73.5,71.9,98,91,81,30.04,29.92,10,2,10,0.44
2014-8-18,95.5,82.7,72.1,77.7,73.7,65.5,98,77,39,30.01,29.86,13,3,13,0.00
2014-8-19,97.9,85.4,76.3,77.1,68.6,57.2,90,62,30,29.98,29.86,13,5,13,0.00
2014-8-20,99.1,86.0,77.0,76.2,70.0,63.0,90,63,33,30.01,29.92,15,6,15,0.00
2014-8-21,99.9,87.2,76.5,76.7,68.7,57.8,94,60,26,30.07,29.95,15,7,15,0.00
2014-8-22,101.7,88.7,77.4,75.7,67.3,55.3,90,54,24,30.07,29.95,15,7,15,0.00
2014-8-23,101.7,91.0,75.4,73.9,63.8,57.9,89,44,25,30.04,29.92,10,5,10,0.00
2014-8-24,101.6,87.5,74.8,71.7,66.6,59.2,88,54,27,30.01,29.89,10,4,10,0.00
2014-8-25,103.3,88.2,75.0,71.7,66.4,58.8,85,52,27,30.01,29.92,9,2,9,0.00
2014-8-26,99.9,87.6,76.6,73.4,68.6,61.2,86,57,31,30.07,29.95,9,2,9,0.00
2014-8-27,96.8,84.2,73.4,74.1,66.6,56.6,93,60,32,30.10,29.98,8,2,8,0.00
2014-8-28,98.4,84.3,72.3,71.2,65.7,59.8,85,57,30,30.01,29.83,9,2,9,0.00
2014-8-29,92.3,80.2,71.1,75.5,71.7,66.6,96,78,46,29.98,29.86,13,3,13,0.07
2014-8-30,94.5,81.9,72.1,75.1,69.9,62.4,97,71,39,30.01,29.89,9,3,9,0.00
2014-8-31,95.0,83.9,74.7,74.7,70.5,63.8,94,68,38,30.01,29.89,15,6,15,0.00
2014-9-1,96.6,85.0,75.7,74.4,70.0,63.3,91,64,34,29.98,29.86,15,8,15,0.00
2014-9-2,97.7,86.9,76.3,75.5,70.9,64.4,94,62,35,30.04,29.89,13,6,13,0.00
2014-9-3,98.8,85.7,75.2,75.8,70.0,61.9,95,64,33,30.04,29.92,14,6,14,0.00
2014-9-4,97.3,85.7,75.4,75.1,69.1,62.2,91,61,34,30.07,29.98,13,6,13,0.00
2014-9-5,99.1,85.3,73.2,75.1,67.9,60.1,94,61,30,30.13,29.98,9,3,9,0.00
2014-9-6,99.9,83.3,73.2,74.0,69.0,61.6,95,66,32,30.10,29.98,12,3,12,0.43
2014-9-7,89.6,77.7,70.5,72.6,69.9,65.4,94,79,50,30.13,30.01,10,4,10,0.00
2014-9-8,96.8,82.4,71.4,74.6,69.8,63.0,97,70,36,30.07,29.92,9,3,9,0.00
2014-9-9,99.3,85.7,75.0,74.1,68.9,61.5,91,62,32,30.01,29.83,15,5,15,0.00
2014-9-10,100.0,87.5,76.1,74.1,68.8,62.1,86,57,31,29.86,29.77,17,8,17,0.00
2014-9-11,87.8,80.5,71.6,76.9,73.0,68.7,95,79,58,30.04,29.83,12,6,12,0.02
2014-9-12,73.4,69.0,61.0,72.6,66.6,56.6,98,92,82,30.22,30.01,16,7,16,0.03
2014-9-13,71.1,63.4,57.6,60.4,56.6,54.1,92,79,60,30.28,30.19,14,7,14,0.00
2014-9-14,86.2,70.9,61.7,65.3,61.6,58.3,98,76,43,30.25,30.13,6,2,6,0.00
2014-9-15,89.8,77.8,68.9,71.8,67.2,63.0,96,73,43,30.19,30.10,8,2,8,0.01
2014-9-16,97.3,82.1,72.5,73.5,69.0,62.4,94,68,35,30.16,29.98,7,2,7,0.00
2014-9-17,91.4,76.6,71.6,74.3,71.4,68.9,97,85,49,30.04,29.92,8,2,8,0.00
2014-9-18,90.1,79.7,72.0,74.4,70.1,65.2,93,74,50,29.98,29.86,10,3,10,0.00
2014-9-19,92.1,78.5,68.2,71.9,67.6,62.1,98,73,38,30.01,29.92,12,3,12,0.00
2014-9-20,96.3,81.4,71.1,73.0,64.2,54.2,97,62,27,30.07,29.95,10,3,10,0.00
2014-9-21,99.3,81.9,66.7,71.0,62.9,56.1,90,58,28,30.13,30.01,12,2,12,0.00
2014-9-22,90.9,77.7,66.0,71.2,55.4,45.6,83,50,23,30.22,30.10,13,5,13,0.00
2014-9-23,89.1,71.7,57.4,55.1,50.8,43.3,88,53,23,30.22,30.10,10,3,10,0.00
2014-9-24,91.4,72.4,54.5,55.7,48.5,40.4,93,50,18,30.22,30.13,12,2,12,0.00
2014-9-25,91.2,74.4,59.4,62.3,54.9,47.6,96,56,27,30.22,30.10,9,2,9,0.00
2014-9-26,91.8,75.2,61.0,63.9,56.4,48.9,95,58,27,30.16,30.04,10,2,10,0.00
2014-9-27,90.0,75.8,65.1,63.3,57.9,52.0,90,58,30,30.13,30.01,9,2,9,0.00
2014-9-28,91.6,76.6,65.7,65.9,60.1,53.5,93,61,30,30.10,30.01,10,2,10,0.00
2014-9-29,91.8,76.1,63.1,64.0,61.1,58.4,92,63,37,30.07,29.92,10,2,11,0.00
2014-9-30,95.2,79.3,66.2,69.6,64.0,59.7,91,63,32,29.92,29.77,13,3,13,0.00
2014-10-1,94.5,81.7,72.1,73.0,68.0,61.2,96,67,37,29.86,29.75,14,5,14,0.00
2014-10-2,94.5,78.7,66.7,75.2,69.5,55.0,92,76,38,29.95,29.69,20,8,20,0.22
2014-10-3,85.3,68.6,56.7,58.1,51.3,39.9,94,59,29,30.25,29.95,13,4,13,0.00
2014-10-4,80.8,63.2,45.3,42.3,37.8,32.5,83,44,20,30.25,30.01,9,2,9,0.00
2014-10-5,86.2,76.1,59.2,60.4,58.1,51.3,80,56,39,29.98,29.83,14,7,14,0.00
2014-10-6,84.0,73.4,64.8,68.2,63.2,57.6,98,73,45,29.95,29.83,13,6,13,0.46
2014-10-7,95.4,79.2,66.4,72.1,66.8,62.1,96,70,37,29.95,29.86,13,7,13,0.00
2014-10-8,89.1,78.7,72.3,72.0,68.7,61.2,96,74,43,30.07,29.95,13,7,13,0.00
2014-10-9,91.4,80.2,73.0,74.3,69.5,63.3,97,72,42,30.04,29.86,12,6,12,0.00
2014-10-10,93.2,81.4,66.4,72.5,66.3,59.5,97,64,35,29.98,29.83,15,7,15,0.41
2014-10-11,66.4,61.2,58.1,65.8,59.0,53.9,98,93,82,30.10,29.92,9,3,9,0.62
2014-10-12,74.8,64.1,55.8,71.6,58.4,52.4,98,83,57,30.07,29.69,13,4,13,0.00
2014-10-13,74.7,63.2,59.4,71.8,57.3,45.9,98,82,60,29.95,29.60,22,7,22,1.05
2014-10-14,77.5,63.5,53.4,47.9,43.0,38.6,79,50,27,30.10,29.95,10,4,12,0.00
2014-10-15,85.5,68.5,48.2,51.9,47.0,41.6,93,52,23,30.13,29.98,6,1,6,0.00
2014-10-16,89.2,69.6,52.3,53.5,49.1,42.7,93,55,21,29.98,29.83,15,5,15,0.00
2014-10-17,89.4,72.7,60.6,60.4,55.3,47.5,91,59,30,29.98,29.83,9,4,9,0.00
2014-10-18,84.9,70.1,59.7,61.4,54.8,49.7,87,61,39,30.13,29.98,10,5,11,0.00
2014-10-19,80.1,65.1,53.8,56.5,52.3,48.0,97,67,37,30.19,30.07,9,2,9,0.00
2014-10-20,86.2,67.9,52.9,61.2,56.4,51.4,97,70,39,30.13,30.04,8,2,8,0.00
2014-10-21,85.1,69.9,55.2,62.8,57.2,53.1,98,69,34,30.13,30.04,8,2,8,0.00
2014-10-22,84.7,69.7,57.9,65.1,56.9,50.6,98,69,37,30.19,30.07,8,2,8,0.00
2014-10-23,79.9,68.1,61.9,56.9,54.0,51.1,81,62,41,30.19,30.10,8,2,8,0.00
2014-10-24,85.1,69.2,57.4,60.7,56.7,51.5,94,68,40,30.19,30.10,10,3,10,0.00
2014-10-25,91.0,74.6,61.7,62.3,59.5,55.7,93,64,33,30.16,30.04,10,5,10,0.00
2014-10-26,88.7,73.9,62.2,63.0,58.7,52.4,96,63,32,30.04,29.89,14,6,14,0.00
2014-10-27,85.1,73.4,63.3,64.6,58.0,53.0,94,61,37,29.92,29.81,17,10,17,0.00
2014-10-28,76.3,70.9,66.2,67.7,63.5,56.9,98,78,59,30.13,29.86,15,4,15,0.04
2014-10-29,80.6,65.0,53.1,56.8,46.9,37.9,89,56,25,30.25,30.13,9,4,10,0.00
2014-10-30,78.1,61.6,47.1,56.1,48.1,43.1,91,65,33,30.19,30.07,12,2,12,0.00
2014-10-31,70.2,58.9,44.8,49.4,38.9,28.7,67,49,33,30.37,30.16,15,6,15,0.00
2014-11-1,65.3,49.0,36.1,32.1,27.8,24.7,78,47,24,30.45,30.31,9,4,9,0.00
2014-11-2,69.4,53.6,39.6,41.5,34.3,26.6,73,49,34,30.37,30.22,17,4,17,0.00
2014-11-3,77.9,64.7,51.8,61.4,52.7,39.2,86,67,45,30.22,30.10,17,5,17,0.00
2014-11-4,68.2,61.1,53.2,64.5,59.3,52.7,98,94,80,30.25,30.07,14,6,14,0.87
2014-11-5,58.8,55.0,51.4,58.3,54.5,50.9,98,98,98,30.25,30.16,10,3,10,0.22
2014-11-6,74.5,56.8,44.1,52.7,43.9,33.2,98,67,34,30.34,30.25,13,3,13,0.01
2014-11-7,69.1,53.8,38.5,42.0,36.7,32.8,89,56,32,30.31,30.04,9,3,9,0.00
2014-11-8,72.3,55.9,45.1,48.0,38.5,29.4,92,57,26,30.16,30.01,16,4,16,0.00
2014-11-9,72.9,53.8,36.1,43.2,38.0,31.0,96,59,31,30.16,29.86,10,4,10,0.00
2014-11-10,77.7,64.2,50.2,58.4,46.3,40.9,79,54,34,29.86,29.66,25,11,26,0.00
2014-11-11,65.1,47.3,37.0,61.3,31.2,20.1,93,55,39,30.25,29.69,15,7,15,0.00
2014-11-12,45.5,36.2,30.4,22.6,16.8,12.1,52,45,39,30.45,30.25,15,8,15,0.00
2014-11-13,43.0,33.9,27.9,14.6,10.5,8.1,45,37,29,30.57,30.45,13,6,13,0.00
2014-11-14,41.2,34.6,27.7,17.7,13.8,8.2,51,42,36,30.45,30.28,6,3,6,0.00
2014-11-15,45.9,41.1,38.1,40.8,27.9,16.8,98,63,41,30.28,30.04,12,5,13,0.07
2014-11-16,40.6,37.5,28.9,39.9,35.3,24.0,98,92,76,30.25,29.98,16,6,16,0.05
2014-11-17,47.8,33.1,23.9,24.0,18.7,13.3,82,58,31,30.42,30.25,12,4,12,0.00
2014-11-18,57.7,38.8,21.9,25.7,19.0,13.8,77,48,25,30.48,30.31,12,5,12,0.00
2014-11-19,65.3,47.5,34.2,38.0,28.9,17.8,85,50,33,30.31,30.13,15,5,15,0.00
2014-11-20,73.0,56.6,36.9,59.2,47.8,33.9,98,76,42,30.13,30.01,15,5,15,0.00
2014-11-21,65.5,62.3,59.0,63.1,60.6,57.6,98,94,89,30.16,30.07,13,6,13,0.03
2014-11-22,67.5,62.4,59.5,62.0,58.9,56.5,98,89,71,30.13,29.69,13,6,13,0.33
2014-11-23,76.8,61.7,48.7,61.7,49.4,35.2,98,70,24,29.81,29.42,17,6,17,0.01
2014-11-24,64.4,49.2,37.9,37.1,31.0,24.1,80,53,24,30.16,29.81,8,2,8,0.00
2014-11-25,66.2,47.9,34.0,32.6,27.8,23.0,79,50,24,30.31,30.10,12,2,12,0.00
2014-11-26,68.4,52.0,39.4,36.2,30.3,25.1,63,45,28,30.40,30.01,10,5,10,0.00
2014-11-27,64.2,47.6,35.8,27.5,23.5,19.8,60,40,23,30.54,30.37,10,3,10,0.00
2014-11-28,69.6,54.3,37.8,50.9,39.2,21.8,77,58,45,30.37,29.98,18,8,18,0.00
2014-11-29,76.6,64.2,52.9,60.8,52.9,49.0,96,70,41,30.01,29.89,19,11,19,0.00
2014-11-30,79.2,70.1,64.6,63.3,59.3,53.1,90,71,43,30.13,29.92,22,10,22,0.00
2014-12-1,64.8,41.6,32.9,62.0,28.3,18.2,92,60,42,30.45,30.13,12,6,12,0.02
2014-12-2,48.9,40.1,31.8,43.4,24.7,17.4,84,55,41,30.45,30.16,9,2,9,0.00
2014-12-3,58.3,53.8,48.9,56.5,50.8,39.6,98,90,70,30.22,30.13,10,3,10,0.01
2014-12-4,67.3,60.5,56.3,60.7,57.7,55.5,98,91,75,30.19,30.04,8,3,8,0.00
2014-12-5,76.5,67.2,59.5,66.5,62.0,57.0,98,85,56,30.22,30.01,13,6,15,0.01
2014-12-6,69.6,57.5,46.0,57.0,48.8,44.5,95,75,44,30.42,30.22,12,7,12,0.00
2014-12-7,57.6,50.4,44.1,48.7,45.4,43.5,98,84,65,30.42,30.28,8,4,8,0.00
2014-12-8,62.8,47.9,37.6,48.5,43.1,36.9,98,85,52,30.37,30.28,6,1,6,0.00
2014-12-9,67.1,48.3,36.5,57.0,42.2,35.8,98,82,46,30.37,30.25,6,1,6,0.00
2014-12-10,58.1,48.7,40.3,99.9,43.1,39.8,98,82,60,30.28,30.13,7,3,7,0.01
2014-12-11,63.5,56.5,51.3,58.0,52.6,43.2,98,87,71,30.22,30.13,9,3,9,0.13
2014-12-12,68.4,60.5,53.8,60.8,58.1,53.2,98,92,74,30.28,30.16,9,3,9,0.09
2014-12-13,69.3,61.6,57.4,59.6,56.8,54.5,98,85,61,30.25,30.07,13,5,13,0.00
2014-12-14,68.0,63.6,60.4,64.6,62.0,59.5,98,95,76,30.07,29.81,13,6,17,0.91
2014-12-15,66.2,58.2,46.6,65.1,41.3,28.9,98,56,35,30.16,29.81,14,6,14,0.31
2014-12-16,55.2,45.0,36.7,34.3,30.1,25.0,86,57,43,30.37,30.16,10,3,10,0.00
2014-12-17,46.2,41.4,36.0,41.9,36.4,31.7,98,83,67,30.31,30.07,9,4,9,0.39
2014-12-18,48.2,44.9,39.9,47.7,44.4,39.4,98,98,98,30.19,30.10,6,3,8,0.03
2014-12-19,49.8,47.3,45.8,48.8,46.6,45.3,98,97,94,30.22,30.10,8,4,10,0.04
2014-12-20,48.2,46.8,45.0,46.9,45.9,44.4,98,97,93,30.25,30.16,6,3,6,0.00
2014-12-21,52.7,49.0,46.4,50.8,46.8,43.8,98,92,78,30.19,29.75,13,4,13,0.00
2014-12-22,69.1,58.4,50.7,54.2,48.3,41.6,94,72,40,29.75,29.57,13,6,16,0.00
2014-12-23,53.2,48.2,41.7,48.9,39.1,28.2,98,72,52,29.92,29.66,13,4,13,0.55
2014-12-24,55.4,44.8,36.1,34.7,31.2,28.1,78,60,42,30.04,29.89,13,4,13,0.00
2014-12-25,63.1,48.0,35.2,41.1,31.2,27.7,77,56,27,30.04,29.92,20,7,20,0.00
2014-12-26,62.4,58.7,50.4,61.8,54.5,41.3,98,87,71,30.01,29.89,9,4,12,0.02
2014-12-27,61.7,43.6,34.7,61.1,40.5,27.3,98,89,74,30.28,30.01,14,7,14,0.12
2014-12-28,52.5,38.4,30.2,29.6,25.3,20.7,78,60,36,30.28,30.13,8,3,8,0.00
2014-12-29,56.7,39.3,27.3,41.6,32.7,23.7,98,79,41,30.25,30.04,8,3,8,0.00
2014-12-30,49.8,40.9,33.1,39.5,30.4,25.6,91,68,45,30.51,30.25,12,5,15,0.00
2014-12-31,39.2,36.0,33.8,26.9,24.6,22.2,73,63,57,30.60,30.40,10,6,10,0.00
2015-1-1,38.1,35.7,33.4,37.6,33.3,23.0,98,91,62,30.40,30.19,8,3,8,0.70
2015-1-2,42.3,40.5,37.9,41.7,39.9,37.4,98,98,98,30.22,29.95,8,4,8,0.23